createdAt,value
2018-10-02T00:02:24.414Z,97105.22
2018-10-02T00:04:54.104Z,97119.16
2018-10-02T00:07:23.917Z,97117.59
2018-10-02T00:09:53.601Z,97125.74
2018-10-02T00:12:28.336Z,97129.39
2018-10-02T00:14:58.040Z,97122.23
2018-10-02T00:17:27.752Z,97126.78
2018-10-02T00:19:57.476Z,97128.28
2018-10-02T00:22:27.059Z,97124.63
2018-10-02T00:24:56.763Z,97118.58
2018-10-02T00:27:26.716Z,97125.28
2018-10-02T00:29:56.411Z,97124.15
2018-10-02T00:32:26.683Z,97125.84
2018-10-02T00:34:56.204Z,97132.39
2018-10-02T00:37:26.031Z,97133.34
2018-10-02T00:39:55.860Z,97156.85
2018-10-02T00:42:25.637Z,97162.43
2018-10-02T00:44:55.420Z,97156.56
2018-10-02T00:47:25.183Z,97149.14
2018-10-02T00:49:54.889Z,97149.22
2018-10-02T00:52:24.603Z,97154.41
2018-10-02T00:54:54.302Z,97146.98
2018-10-02T00:57:23.893Z,97136.09
2018-10-02T00:59:53.661Z,97143.70
2018-10-02T01:02:23.308Z,97138.87
2018-10-02T01:04:52.989Z,97155.23
2018-10-02T01:07:22.816Z,97157.59
2018-10-02T01:09:52.532Z,97161.23
2018-10-02T01:12:22.479Z,97162.12
2018-10-02T01:14:52.156Z,97161.92
2018-10-02T01:17:21.856Z,97167.77
2018-10-02T01:19:51.595Z,97167.19
2018-10-02T01:22:21.278Z,97171.03
2018-10-02T01:24:51.008Z,97169.16
2018-10-02T01:27:20.760Z,97165.37
2018-10-02T01:29:50.528Z,97166.61
2018-10-02T01:32:20.236Z,97157.25
2018-10-02T01:34:49.827Z,97160.64
2018-10-02T01:37:19.603Z,97159.03
2018-10-02T01:39:49.255Z,97161.50
2018-10-02T01:42:18.923Z,97168.31
2018-10-02T01:44:48.811Z,97173.86
2018-10-02T01:47:18.820Z,97167.77
2018-10-02T01:49:48.599Z,97175.61
2018-10-02T01:52:18.283Z,97171.14
2018-10-02T01:54:48.092Z,97171.16
2018-10-02T01:57:17.930Z,97173.28
2018-10-02T01:59:47.752Z,97170.23
2018-10-02T02:02:17.555Z,97180.01
2018-10-02T02:04:47.364Z,97175.95
2018-10-02T02:07:17.176Z,97178.75
2018-10-02T02:09:46.960Z,97186.31
2018-10-02T02:12:16.806Z,97181.91
2018-10-02T02:14:46.587Z,97190.38
2018-10-02T02:17:16.284Z,97186.31
2018-10-02T02:19:46.146Z,97191.82
2018-10-02T02:22:15.908Z,97187.28
2018-10-02T02:24:45.697Z,97186.42
2018-10-02T02:27:15.558Z,97185.06
2018-10-02T02:29:45.231Z,97178.10
2018-10-02T02:32:15.166Z,97181.33
2018-10-02T02:34:44.884Z,97177.17
2018-10-02T02:37:14.577Z,97176.45
2018-10-02T02:39:44.245Z,97172.63
2018-10-02T02:42:13.927Z,97173.11
2018-10-02T02:44:43.579Z,97178.52
2018-10-02T02:47:18.452Z,97188.85
2018-10-02T02:49:53.123Z,97184.83
2018-10-02T02:52:24.532Z,97186.53
2018-10-02T02:54:54.325Z,97180.64
2018-10-02T02:57:24.236Z,97177.94
2018-10-02T02:59:53.923Z,97188.91
2018-10-02T03:02:23.651Z,97188.88
2018-10-02T03:04:53.364Z,97191.07
2018-10-02T03:07:23.235Z,97194.73
2018-10-02T03:09:52.888Z,97205.80
2018-10-02T03:12:22.568Z,97203.37
2018-10-02T03:14:52.348Z,97209.13
2018-10-02T03:17:22.116Z,97211.95
2018-10-02T03:19:51.820Z,97205.70
2018-10-02T03:22:21.472Z,97208.75
2018-10-02T03:24:51.141Z,97206.18
2018-10-02T03:27:20.826Z,97212.85
2018-10-02T03:29:50.871Z,97214.57
2018-10-02T03:32:20.658Z,97214.82
2018-10-02T03:34:50.379Z,97215.78
2018-10-02T03:37:20.135Z,97212.73
2018-10-02T03:39:49.745Z,97220.61
2018-10-02T03:42:19.543Z,97224.01
2018-10-02T03:44:49.206Z,97221.23
2018-10-02T03:47:18.891Z,97227.33
2018-10-02T03:49:48.632Z,97226.86
2018-10-02T03:52:18.304Z,97221.81
2018-10-02T03:54:48.068Z,97224.25
2018-10-02T03:57:17.732Z,97224.89
2018-10-02T03:59:47.456Z,97225.36
2018-10-02T04:02:17.473Z,97229.69
2018-10-02T04:04:47.187Z,97239.38
2018-10-02T04:07:16.952Z,97234.20
2018-10-02T04:09:46.676Z,97238.52
2018-10-02T04:12:16.407Z,97246.23
2018-10-02T04:14:46.017Z,97245.76
2018-10-02T04:17:15.727Z,97247.73
2018-10-02T04:19:45.436Z,97250.41
2018-10-02T04:22:15.248Z,97239.14
2018-10-02T04:24:44.944Z,97246.11
2018-10-02T04:27:14.776Z,97243.80
2018-10-02T04:29:44.615Z,97242.33
2018-10-02T04:32:14.367Z,97240.60
2018-10-02T04:34:44.005Z,97240.12
2018-10-02T04:37:13.704Z,97240.97
2018-10-02T04:39:43.389Z,97250.41
2018-10-02T04:42:13.147Z,97248.44
2018-10-02T04:44:42.831Z,97257.41
2018-10-02T04:47:12.620Z,97261.46
2018-10-02T04:49:42.457Z,97263.67
2018-10-02T04:52:12.161Z,97261.59
2018-10-02T04:54:41.966Z,97264.77
2018-10-02T04:57:11.648Z,97271.00
2018-10-02T04:59:41.366Z,97272.73
2018-10-02T05:02:11.207Z,97274.09
2018-10-02T05:04:40.880Z,97284.02
2018-10-02T05:07:10.613Z,97278.62
2018-10-02T05:09:40.453Z,97287.37
2018-10-02T05:12:10.033Z,97296.22
2018-10-02T05:14:39.740Z,97305.82
2018-10-02T05:17:09.496Z,97303.95
2018-10-02T05:19:39.201Z,97302.87
2018-10-02T05:22:09.019Z,97307.39
2018-10-02T05:24:38.828Z,97307.30
2018-10-02T05:27:08.390Z,97305.05
2018-10-02T05:29:37.989Z,97307.73
2018-10-02T05:32:07.696Z,97317.26
2018-10-02T05:34:37.381Z,97320.48
2018-10-02T05:37:07.149Z,97325.73
2018-10-02T05:39:37.004Z,97326.83
2018-10-02T05:42:06.788Z,97332.84
2018-10-02T05:44:36.651Z,97338.28
2018-10-02T05:47:06.446Z,97336.98
2018-10-02T05:49:36.269Z,97354.13
2018-10-02T05:52:06.056Z,97357.84
2018-10-02T05:54:35.913Z,97354.14
2018-10-02T05:57:05.691Z,97364.73
2018-10-02T05:59:35.340Z,97369.23
2018-10-02T06:02:05.307Z,97371.45
2018-10-02T06:04:35.024Z,97375.25
2018-10-02T06:07:04.715Z,97380.02
2018-10-02T06:09:34.448Z,97377.66
2018-10-02T06:12:04.056Z,97387.34
2018-10-02T06:14:33.735Z,97395.37
2018-10-02T06:17:03.562Z,97386.80
2018-10-02T06:19:33.251Z,97399.48
2018-10-02T06:22:03.073Z,97398.62
2018-10-02T06:24:32.903Z,97409.91
2018-10-02T06:27:02.683Z,97413.00
2018-10-02T06:29:32.442Z,97414.62
2018-10-02T06:32:02.102Z,97418.57
2018-10-02T06:34:31.796Z,97418.69
2018-10-02T06:37:01.644Z,97422.14
2018-10-02T06:39:32.674Z,97423.13
2018-10-02T06:42:02.857Z,97426.98
2018-10-02T06:44:33.134Z,97435.13
2018-10-02T06:47:02.814Z,97432.44
2018-10-02T06:49:32.517Z,97435.19
2018-10-02T06:52:02.793Z,97438.13
2018-10-02T06:54:32.354Z,97437.05
2018-10-02T06:57:02.139Z,97446.20
2018-10-02T06:59:31.756Z,97449.85
2018-10-02T07:02:01.488Z,97453.84
2018-10-02T07:04:31.196Z,97452.97
2018-10-02T07:07:00.885Z,97456.30
2018-10-02T07:09:30.540Z,97465.50
2018-10-02T07:12:00.245Z,97467.92
2018-10-02T07:14:30.033Z,97468.94
2018-10-02T07:16:59.809Z,97463.34
2018-10-02T07:19:29.508Z,97468.88
2018-10-02T07:21:59.282Z,97477.48
2018-10-02T07:24:28.887Z,97470.06
2018-10-02T07:26:58.628Z,97464.95
2018-10-02T07:29:28.337Z,97471.56
2018-10-02T07:31:58.075Z,97480.96
2018-10-02T07:34:27.752Z,97485.55
2018-10-02T07:36:57.526Z,97490.28
2018-10-02T07:39:27.193Z,97490.44
2018-10-02T07:41:56.954Z,97494.44
2018-10-02T07:44:26.757Z,97494.71
2018-10-02T07:46:56.393Z,97490.87
2018-10-02T07:49:27.175Z,97494.67
2018-10-02T07:51:56.929Z,97497.36
2018-10-02T07:54:26.796Z,97498.59
2018-10-02T07:56:56.467Z,97497.61
2018-10-02T07:59:26.513Z,97500.73
2018-10-02T08:01:56.101Z,97513.45
2018-10-02T08:04:25.776Z,97510.09
2018-10-02T08:06:55.573Z,97507.98
2018-10-02T08:09:25.301Z,97515.56
2018-10-02T08:11:55.101Z,97519.36
2018-10-02T08:14:24.877Z,97520.38
2018-10-02T08:16:54.532Z,97524.31
2018-10-02T08:19:24.364Z,97524.19
2018-10-02T08:21:54.141Z,97524.42
2018-10-02T08:24:23.852Z,97520.22
2018-10-02T08:26:53.693Z,97519.91
2018-10-02T08:29:23.559Z,97513.01
2018-10-02T08:31:53.412Z,97516.61
2018-10-02T08:34:23.113Z,97516.88
2018-10-02T08:36:52.927Z,97520.22
2018-10-02T08:39:22.739Z,97522.75
2018-10-02T08:41:52.440Z,97519.19
2018-10-02T08:44:22.092Z,97520.25
2018-10-02T08:46:51.780Z,97521.99
2018-10-02T08:49:21.588Z,97527.58
2018-10-02T08:51:51.559Z,97526.15
2018-10-02T08:54:21.373Z,97525.75
2018-10-02T08:56:51.101Z,97526.73
2018-10-02T08:59:20.917Z,97529.35
2018-10-02T09:01:50.521Z,97524.83
2018-10-02T09:04:20.307Z,97524.47
2018-10-02T09:06:50.049Z,97525.82
2018-10-02T09:09:19.940Z,97525.90
2018-10-02T09:11:49.539Z,97530.45
2018-10-02T09:14:19.392Z,97532.53
2018-10-02T09:16:49.363Z,97533.06
2018-10-02T09:19:19.054Z,97532.53
2018-10-02T09:21:48.943Z,97533.42
2018-10-02T09:24:18.577Z,97534.30
2018-10-02T09:26:48.414Z,97535.22
2018-10-02T09:29:18.248Z,97531.28
2018-10-02T09:31:53.005Z,97531.30
2018-10-02T09:34:28.287Z,97532.53
2018-10-02T09:37:03.061Z,97536.19
2018-10-02T09:39:37.913Z,97531.88
2018-10-02T09:42:12.592Z,97535.64
2018-10-02T09:44:42.392Z,97537.54
2018-10-02T09:47:12.174Z,97534.56
2018-10-02T09:49:42.016Z,97532.77
2018-10-02T09:52:11.837Z,97532.13
2018-10-02T09:54:41.521Z,97536.27
2018-10-02T09:57:11.252Z,97534.64
2018-10-02T09:59:41.016Z,97532.14
2018-10-02T10:02:15.461Z,97535.92
2018-10-02T10:04:45.173Z,97541.26
2018-10-02T10:07:14.857Z,97538.96
2018-10-02T10:09:44.585Z,97538.27
2018-10-02T10:12:14.272Z,97538.74
2018-10-02T10:14:43.949Z,97530.38
2018-10-02T10:17:13.801Z,97532.53
2018-10-02T10:19:43.392Z,97539.97
2018-10-02T10:22:13.336Z,97544.41
2018-10-02T10:24:43.129Z,97546.91
2018-10-02T10:27:12.993Z,97548.55
2018-10-02T10:29:42.787Z,97550.66
2018-10-02T10:32:12.600Z,97538.63
2018-10-02T10:34:42.452Z,97538.31
2018-10-02T10:37:12.160Z,97532.17
2018-10-02T10:39:41.943Z,97527.34
2018-10-02T10:42:11.624Z,97531.84
2018-10-02T10:44:41.296Z,97525.63
2018-10-02T10:47:11.048Z,97529.48
2018-10-02T10:49:40.705Z,97524.03
2018-10-02T10:52:10.308Z,97514.41
2018-10-02T10:54:40.057Z,97510.52
2018-10-02T10:57:09.747Z,97515.89
2018-10-02T10:59:39.363Z,97511.81
2018-10-02T11:02:09.021Z,97510.91
2018-10-02T11:04:38.835Z,97512.55
2018-10-02T11:07:08.482Z,97514.68
2018-10-02T11:09:38.932Z,97510.06
2018-10-02T11:12:08.672Z,97506.03
2018-10-02T11:14:38.448Z,97497.09
2018-10-02T11:17:08.196Z,97491.71
2018-10-02T11:19:38.188Z,97484.88
2018-10-02T11:22:07.861Z,97486.03
2018-10-02T11:24:37.680Z,97487.85
2018-10-02T11:27:07.491Z,97488.55
2018-10-02T11:29:37.174Z,97470.67
2018-10-02T11:32:07.228Z,97468.27
2018-10-02T11:34:37.003Z,97460.84
2018-10-02T11:37:06.841Z,97447.98
2018-10-02T11:39:36.514Z,97447.63
2018-10-02T11:42:06.296Z,97444.08
2018-10-02T11:44:36.207Z,97445.41
2018-10-02T11:47:05.965Z,97441.28
2018-10-02T11:49:36.039Z,97438.61
2018-10-02T11:52:05.693Z,97432.66
2018-10-02T11:54:35.407Z,97432.42
2018-10-02T11:57:05.078Z,97433.59
2018-10-02T11:59:34.817Z,97439.45
2018-10-02T12:02:04.587Z,97442.05
2018-10-02T12:04:34.334Z,97442.54
2018-10-02T12:07:04.168Z,97438.99
2018-10-02T12:09:33.904Z,97441.78
2018-10-02T12:12:03.598Z,97435.12
2018-10-02T12:14:33.454Z,97434.00
2018-10-02T12:17:02.972Z,97430.04
2018-10-02T12:19:32.785Z,97426.98
2018-10-02T12:22:02.509Z,97416.12
2018-10-02T12:24:32.194Z,97426.88
2018-10-02T12:27:01.968Z,97425.15
2018-10-02T12:29:31.759Z,97416.89
2018-10-02T12:32:02.141Z,97411.01
2018-10-02T12:34:31.865Z,97408.91
2018-10-02T12:37:01.581Z,97425.17
2018-10-02T12:39:31.294Z,97423.80
2018-10-02T12:42:01.081Z,97418.14
2018-10-02T12:44:30.699Z,97427.10
2018-10-02T12:47:00.556Z,97413.66
2018-10-02T12:49:30.217Z,97421.22
2018-10-02T12:52:00.054Z,97422.58
2018-10-02T12:54:29.717Z,97417.37
2018-10-02T12:56:59.576Z,97416.13
2018-10-02T12:59:29.298Z,97416.04
2018-10-02T13:01:59.037Z,97429.48
2018-10-02T13:04:28.848Z,97422.09
2018-10-02T13:06:58.697Z,97423.91
2018-10-02T13:09:28.486Z,97421.17
2018-10-02T13:11:58.997Z,97415.14
2018-10-02T13:14:28.924Z,97417.72
2018-10-02T13:16:58.756Z,97415.03
2018-10-02T13:19:28.687Z,97419.31
2018-10-02T13:21:58.494Z,97416.55
2018-10-02T13:24:28.373Z,97415.61
2018-10-02T13:26:58.134Z,97417.97
2018-10-02T13:29:27.992Z,97404.92
2018-10-02T13:31:57.816Z,97410.19
2018-10-02T13:34:27.538Z,97403.52
2018-10-02T13:36:57.238Z,97402.81
2018-10-02T13:39:27.269Z,97411.36
2018-10-02T13:41:57.096Z,97411.69
2018-10-02T13:44:27.001Z,97402.81
2018-10-02T13:46:56.810Z,97405.88
2018-10-02T13:49:26.632Z,97409.42
2018-10-02T13:51:56.588Z,97408.20
2018-10-02T13:54:26.257Z,97407.97
2018-10-02T13:56:55.979Z,97421.16
2018-10-02T13:59:25.737Z,97417.32
2018-10-02T14:01:56.216Z,97422.22
2018-10-02T14:04:26.037Z,97421.16
2018-10-02T14:06:55.831Z,97408.78
2018-10-02T14:09:25.544Z,97415.03
2018-10-02T14:11:55.329Z,97418.36
2018-10-02T14:14:25.064Z,97415.03
2018-10-02T14:16:54.774Z,97412.34
2018-10-02T14:19:24.454Z,97407.07
2018-10-02T14:21:54.412Z,97409.95
2018-10-02T14:24:24.193Z,97404.20
2018-10-02T14:26:54.020Z,97410.36
2018-10-02T14:29:23.701Z,97424.09
2018-10-02T14:31:53.388Z,97426.48
2018-10-02T14:34:23.142Z,97428.59
2018-10-02T14:36:52.825Z,97430.52
2018-10-02T14:39:23.156Z,97425.36
2018-10-02T14:41:52.852Z,97430.23
2018-10-02T14:44:22.597Z,97428.05
2018-10-02T14:46:52.271Z,97427.55
2018-10-02T14:49:21.962Z,97423.73
2018-10-02T14:51:51.812Z,97426.78
2018-10-02T14:54:21.547Z,97430.63
2018-10-02T14:56:51.192Z,97422.16
2018-10-02T14:59:21.088Z,97426.31
2018-10-02T15:01:50.760Z,97429.11
2018-10-02T15:04:20.464Z,97432.16
2018-10-02T15:06:50.211Z,97434.01
2018-10-02T15:09:19.825Z,97434.89
2018-10-02T15:11:50.060Z,97433.72
2018-10-02T15:14:19.754Z,97436.88
2018-10-02T15:16:49.509Z,97434.67
2018-10-02T15:19:19.292Z,97438.63
2018-10-02T15:21:49.081Z,97439.57
2018-10-02T15:24:18.816Z,97451.95
2018-10-02T15:26:48.606Z,97451.88
2018-10-02T15:29:18.492Z,97448.33
2018-10-02T15:31:48.301Z,97451.19
2018-10-02T15:34:18.133Z,97452.42
2018-10-02T15:36:47.741Z,97449.84
2018-10-02T15:39:17.552Z,97447.56
2018-10-02T15:41:47.308Z,97443.93
2018-10-02T15:44:17.091Z,97435.61
2018-10-02T15:46:46.860Z,97441.75
2018-10-02T15:49:16.617Z,97437.80
2018-10-02T15:51:46.441Z,97435.80
2018-10-02T15:54:16.285Z,97438.08
2018-10-02T15:56:46.096Z,97437.14
2018-10-02T15:59:15.805Z,97432.42
2018-10-02T16:01:45.724Z,97431.07
2018-10-02T16:04:15.554Z,97440.37
2018-10-02T16:06:45.212Z,97444.40
2018-10-02T16:09:14.927Z,97445.27
2018-10-02T16:11:45.178Z,97440.48
2018-10-02T16:14:14.853Z,97444.51
2018-10-02T16:16:44.753Z,97451.99
2018-10-02T16:19:14.578Z,97461.00
2018-10-02T16:21:44.459Z,97460.05
2018-10-02T16:24:14.229Z,97468.11
2018-10-02T16:26:43.960Z,97460.92
2018-10-02T16:29:13.684Z,97461.40
2018-10-02T16:31:44.680Z,97462.73
2018-10-02T16:34:14.296Z,97471.17
2018-10-02T16:36:44.024Z,97477.63
2018-10-02T16:39:13.752Z,97479.44
2018-10-02T16:41:43.621Z,97486.92
2018-10-02T16:44:13.604Z,97480.39
2018-10-02T16:46:43.648Z,97484.24
2018-10-02T16:49:13.438Z,97489.98
2018-10-02T16:51:43.263Z,97493.54
2018-10-02T16:54:13.401Z,97501.23
2018-10-02T16:56:43.204Z,97505.84
2018-10-02T16:59:13.342Z,97513.03
2018-10-02T17:01:43.559Z,97515.25
2018-10-02T17:04:13.385Z,97521.86
2018-10-02T17:06:43.162Z,97519.94
2018-10-02T17:09:13.173Z,97528.58
2018-10-02T17:11:42.968Z,97529.16
2018-10-02T17:14:12.698Z,97535.01
2018-10-02T17:16:42.618Z,97546.81
2018-10-02T17:19:12.381Z,97549.31
2018-10-02T17:21:42.131Z,97554.69
2018-10-02T17:24:11.622Z,97551.89
2018-10-02T17:26:41.524Z,97564.76
2018-10-02T17:29:11.664Z,97563.13
2018-10-02T17:31:41.348Z,97573.10
2018-10-02T17:34:10.800Z,97578.77
2018-10-02T17:36:40.722Z,97573.39
2018-10-02T17:39:11.521Z,97579.34
2018-10-02T17:41:41.328Z,97578.88
2018-10-02T17:44:11.044Z,97583.09
2018-10-02T17:46:40.955Z,97583.85
2018-10-02T17:49:10.765Z,97585.19
2018-10-02T17:51:40.670Z,97590.57
2018-10-02T17:54:10.388Z,97586.55
2018-10-02T17:56:40.073Z,97587.79
2018-10-02T17:59:09.714Z,97593.19
2018-10-02T18:01:39.989Z,97599.97
2018-10-02T18:04:09.849Z,97595.75
2018-10-02T18:06:39.838Z,97600.19
2018-10-02T18:09:09.640Z,97601.52
2018-10-02T18:11:39.696Z,97605.55
2018-10-02T18:14:09.254Z,97609.02
2018-10-02T18:16:39.691Z,97616.97
2018-10-02T18:19:10.264Z,97610.73
2018-10-02T18:21:40.418Z,97608.34
2018-10-02T18:24:10.832Z,97611.69
2018-10-02T18:26:40.991Z,97614.67
2018-10-02T18:29:12.750Z,97618.42
2018-10-02T18:31:43.077Z,97616.59
2018-10-02T18:34:13.196Z,97622.34
2018-10-02T18:36:43.589Z,97624.44
2018-10-02T18:39:13.996Z,97621.68
2018-10-02T18:41:43.992Z,97628.59
2018-10-02T18:44:14.016Z,97627.80
2018-10-02T18:46:46.020Z,97635.55
2018-10-02T18:49:16.503Z,97638.78
2018-10-02T18:51:46.541Z,97636.70
2018-10-02T18:54:17.463Z,97644.56
2018-10-02T18:56:47.638Z,97639.36
2018-10-02T18:59:17.813Z,97639.03
2018-10-02T19:01:47.892Z,97640.69
2018-10-02T19:04:19.047Z,97643.30
2018-10-02T19:06:49.239Z,97634.27
2018-10-02T19:09:19.619Z,97633.30
2018-10-02T19:11:54.679Z,97643.23
2018-10-02T19:14:24.703Z,97639.94
2018-10-02T19:16:54.830Z,97634.28
2018-10-02T19:19:30.625Z,97624.16
2018-10-02T19:22:00.890Z,97619.80
2018-10-02T19:24:31.127Z,97624.64
2018-10-02T19:27:01.984Z,97626.58
2018-10-02T19:29:32.014Z,97625.00
2018-10-02T19:32:19.243Z,97630.91
2018-10-02T19:34:49.480Z,97631.44
2018-10-02T19:37:24.517Z,97639.31
2018-10-02T19:39:54.474Z,97633.28
2018-10-02T19:42:24.555Z,97633.59
2018-10-02T19:44:54.691Z,97638.03
2018-10-02T19:47:24.874Z,97639.60
2018-10-02T19:49:55.087Z,97638.58
2018-10-02T19:52:25.124Z,97640.26
2018-10-02T19:54:55.120Z,97637.54
2018-10-02T19:57:25.371Z,97645.64
2018-10-02T19:59:56.445Z,97639.80
2018-10-02T20:02:26.864Z,97646.05
2018-10-02T20:04:56.846Z,97644.08
2018-10-02T20:07:27.125Z,97647.98
2018-10-02T20:09:57.287Z,97650.70
2018-10-02T20:12:27.328Z,97650.12
2018-10-02T20:14:57.369Z,97648.22
2018-10-02T20:17:29.284Z,97649.64
2018-10-02T20:19:59.269Z,97657.33
2018-10-02T20:22:35.661Z,97657.34
2018-10-02T20:25:06.024Z,97654.03
2018-10-02T20:27:35.797Z,97650.04
2018-10-02T20:30:06.797Z,97647.89
2018-10-02T20:32:36.492Z,97649.52
2018-10-02T20:35:06.078Z,97658.77
2018-10-02T20:37:36.153Z,97662.64
2018-10-02T20:40:05.881Z,97664.45
2018-10-02T20:42:35.648Z,97668.07
2018-10-02T20:45:05.384Z,97669.13
2018-10-02T20:47:35.117Z,97672.16
2018-10-02T20:50:04.900Z,97669.69
2018-10-02T20:52:34.580Z,97675.91
2018-10-02T20:55:04.468Z,97668.87
2018-10-02T20:57:34.605Z,97665.87
2018-10-02T21:00:04.506Z,97671.16
2018-10-02T21:02:34.357Z,97677.17
2018-10-02T21:05:04.248Z,97665.86
2018-10-02T21:07:34.005Z,97660.29
2018-10-02T21:10:03.771Z,97667.34
2018-10-02T21:12:33.376Z,97665.62
2018-10-02T21:15:03.135Z,97663.48
2018-10-02T21:17:32.715Z,97664.69
2018-10-02T21:20:02.420Z,97656.61
2018-10-02T21:22:32.971Z,97663.00
2018-10-02T21:25:02.649Z,97661.85
2018-10-02T21:27:32.289Z,97655.74
2018-10-02T21:30:02.057Z,97653.41
2018-10-02T21:32:31.812Z,97651.98
2018-10-02T21:35:01.672Z,97650.02
2018-10-02T21:37:31.470Z,97647.02
2018-10-02T21:40:01.375Z,97640.13
2018-10-02T21:42:31.164Z,97644.73
2018-10-02T21:45:01.224Z,97641.53
2018-10-02T21:47:30.925Z,97641.19
2018-10-02T21:50:00.625Z,97635.14
2018-10-02T21:52:30.448Z,97635.09
2018-10-02T21:55:00.146Z,97626.21
2018-10-02T21:57:29.857Z,97621.97
2018-10-02T21:59:59.696Z,97622.55
2018-10-02T22:02:29.352Z,97611.30
2018-10-02T22:04:59.108Z,97623.76
2018-10-02T22:07:28.888Z,97611.11
2018-10-02T22:09:58.640Z,97607.42
2018-10-02T22:12:28.395Z,97613.41
2018-10-02T22:14:58.213Z,97606.50
2018-10-02T22:17:27.936Z,97598.97
2018-10-02T22:19:57.637Z,97600.75
2018-10-02T22:22:27.348Z,97596.84
2018-10-02T22:24:57.068Z,97600.77
2018-10-02T22:27:26.793Z,97612.75
2018-10-02T22:29:56.435Z,97613.19
2018-10-02T22:32:26.300Z,97611.70
2018-10-02T22:34:56.069Z,97611.87
2018-10-02T22:37:25.816Z,97610.11
2018-10-02T22:39:55.641Z,97608.92
2018-10-02T22:42:25.392Z,97611.53
2018-10-02T22:44:55.257Z,97609.69
2018-10-02T22:47:24.926Z,97609.14
2018-10-02T22:49:54.676Z,97611.70
2018-10-02T22:52:24.356Z,97610.84
2018-10-02T22:54:54.088Z,97617.38
2018-10-02T22:57:23.872Z,97610.88
2018-10-02T22:59:53.456Z,97608.41
2018-10-02T23:02:23.141Z,97603.86
2018-10-02T23:04:52.892Z,97601.55
2018-10-02T23:07:22.701Z,97601.69
2018-10-02T23:09:52.359Z,97600.50
2018-10-02T23:12:22.123Z,97602.28
2018-10-02T23:14:51.805Z,97596.41
2018-10-02T23:17:21.456Z,97590.59
2018-10-02T23:19:51.125Z,97594.25
2018-10-02T23:22:20.888Z,97591.10
2018-10-02T23:24:50.558Z,97598.30
2018-10-02T23:27:20.231Z,97589.50
2018-10-02T23:29:50.004Z,97593.58
2018-10-02T23:32:20.056Z,97601.81
2018-10-02T23:34:49.820Z,97594.07
2018-10-02T23:37:19.548Z,97595.58
2018-10-02T23:39:49.208Z,97599.85
2018-10-02T23:42:19.329Z,97607.21
2018-10-02T23:44:48.993Z,97605.43
2018-10-02T23:47:18.648Z,97600.34
2018-10-02T23:49:48.332Z,97603.05
2018-10-02T23:52:18.088Z,97598.02
2018-10-02T23:54:47.768Z,97601.61
2018-10-02T23:57:17.574Z,97602.09
2018-10-02T23:59:47.292Z,97599.30
